Airfield :
LOGIN :

Register | Disclaimer

   EN    FR    IT 

 










Legend :    VFR   Marginal VFR   IFR   Intensive IFR   Very Intensive IFR
Visi :
Ceiling :
>= 8 km
>= 3000ft
5 to 8 km
1000 to 3000 ft
1500m to 5 km
500 to 1000 ft
800 to 1500m
200 to 500 ft
< 800m
< 200 ft
Symbols :   Thunderstorms  Fog  Heavy snow  Heavy precipitations  Wind > 20 kt
SIGMETs :     Misc.  Thunderstorms  Icing  Turbulence  Mountain Waves  Volcanic Ashes






- Airport Elevation : 401 ft
- IATA code : LEQ


EGHC - Land's End

CURRENT METAR :
  • 021420Z 10022KT 3000 HZ FEW005 08/06 Q1024

EXPIRED METARs :
  • 021350Z 10021KT 3000 HZ FEW005 08/06 Q1025
  • 021320Z 09020KT 3500 HZ FEW004 08/06 Q1025
  • 021250Z 10019KT 3500 HZ FEW004 08/06 Q1025
  • 021220Z 09018KT 3000 HZ SCT004 08/06 Q1026
  • 021150Z 10018KT 4000 HZ FEW004 08/06 Q1026
  • 021120Z 09019KT 4000 HZ FEW004 08/06 Q1025

TAF TAF EGHC
Valid from the 02 at 12:00 until the 02 at 18:00 UTC


021114Z 0212/0218 10018KT 3000 BR SCT005
TEMPO 0212/0218 BKN005
BECMG 0214/0217 7000



MET'MAP, your aeronautical weather chart ! - Copyright ORBIFLY December 2007 - Disclaimer

ORBIFLY MET'MAP TEAM :

Programming & Development : Alexandra Zaïnal
Concept & original design : Baudouin d'Aumeries
Assistance for programming : Marc-Olivier Méhu
Technical & hardware support : Manuel Goepfert

Contact : metmap@orbifly.com




SOURCES & CREDITS :

   NOAA